Overton, Nevada Weather observations

Data are for observation ending at time listed.
 Day   Time    Ave.   Ave.  Ave.  Vector   Max.   Stn.    Total    Solar   Ave.  
  of    of     Air    Rel.  Wind   Wind    Wind   Baro.  Precip.   Rad.    Soil  
Year   Day     Temp.  Hum.  Speed  Dir.    Gust   Pres.                    Temp. 
2017   (PST)    F      %     mph   deg.    mph     mb.     in.     W/m2     F   
------------------------------------------------------------------------------
  35   21:10   48.2    70    2.0   333      2.8   968.2    0.00       0    53.3
  35   21:20   47.2    71    2.0   329      3.1   968.3    0.00       0    53.2
  35   21:30   48.3    70    1.8   293      3.4   968.3    0.00       0    53.0
  35   21:40   47.1    71    1.3   322      2.0   968.2    0.00       0    52.8
  35   21:50   46.6    72    1.7   317      2.7   968.2    0.00       0    52.6
  35   22:00   47.7    72    1.4   277      3.0   968.2    0.00       0    52.5
  35   22:10   47.4    72    1.1   287      3.1   968.3    0.00       0    52.4
  35   22:20   46.5    72    2.7   296      3.7   968.4    0.00       0    52.2
  35   22:30   45.9    74    1.0   281      3.5   968.6    0.00       0    52.1
  35   22:40   46.7    74    1.2   282      3.4   968.7    0.00       0    51.9
  35   22:50   46.3    74    1.5   303      2.0   968.8    0.00       0    51.8
  35   23:00   45.3    75    3.0   316      4.2   968.8    0.00       0    51.6
  35   23:10   46.3    75    1.9   296      3.5   968.7    0.00       0    51.5
  35   23:20   46.8    74    2.2   291      4.3   968.8    0.00       0    51.4
  35   23:30   45.5    74    1.3   304      2.6   968.9    0.00       0    51.3
  35   23:40   45.4    76    0.4   289      1.2   968.9    0.00       0    51.2
  35   23:50   46.0    76    0.5   280      1.7   968.7    0.00       0    51.0
  36    0:00   46.6    75    2.0   266      4.2   968.6    0.00       0    50.9
  36    0:10   46.6    73    0.7   265      2.1   968.6    0.00       0    50.8
  36    0:20   45.3    76    1.6   275      2.4   968.5    0.00       0    50.7
  36    0:30   46.0    76    1.9   286      3.1   968.6    0.00       0    50.6
  36    0:40   45.1    76    1.5   304      2.6   968.6    0.00       0    50.4
  36    0:50   44.1    77    2.9   323      4.1   968.6    0.00       0    50.3
  36    1:00   43.6    79    2.6   317      3.6   968.7    0.00       0    50.2
  36    1:10   43.7    80    2.6   314      3.5   968.6    0.00       0    50.0
  36    1:20   44.2    78    3.1   319      3.9   968.5    0.00       0    49.9
  36    1:30   45.2    77    2.6   298      4.1   968.6    0.00       0    49.8
  36    1:40   46.4    75    2.4   287      3.6   968.6    0.00       0    49.8
  36    1:50   46.3    74    1.3   284      3.0   968.6    0.00       0    49.7
  36    2:00   46.5    74    1.6   285      3.2   968.7    0.00       0    49.7
  36    2:10   46.6    74    2.5   289      3.4   968.7    0.00       0    49.6
  36    2:20   46.2    74    1.4   290      3.0   968.7    0.00       0    49.5
  36    2:30   45.0    76    1.1   314      1.7   968.7    0.00       0    49.5
  36    2:40   43.9    79    0.7   323      1.7   968.6    0.00       0    49.3
  36    2:50   43.6    80    0.5   279      1.8   968.5    0.00       0    49.2
  36    3:00   43.0    79    0.6   271      1.5   968.4    0.00       0    49.1
  36    3:10   42.1    80    0.7   277      2.3   968.3    0.00       0    48.9
  36    3:20   43.5    82    2.1   268      3.4   968.2    0.00       0    48.8
  36    3:30   43.6    78    0.2   264      2.2   968.0    0.00       0    48.7
  36    3:40   42.4    80    0.2   265      0.9   967.9    0.00       0    48.6
  36    3:50   42.8    81    1.2   264      2.3   968.0    0.00       0    48.5
  36    4:00   42.0    79    0.5   271      1.5   967.9    0.00       0    48.4
  36    4:10   40.9    83    0.0   276      0.6   967.9    0.00       0    48.2
  36    4:20   40.9    84    0.2   283      0.9   967.9    0.00       0    48.1
  36    4:30   40.6    84    0.3     6      3.2   967.8    0.00       0    48.0
  36    4:40   40.1    85    0.0   220      1.0   967.6    0.00       0    47.8
  36    4:50   41.0    85    1.5   268      2.9   967.6    0.00       0    47.7
  36    5:00   42.1    83    1.6   277      3.0   967.5    0.00       0    47.6
  36    5:10   41.2    82    2.0   290      2.7   967.5    0.00       0    47.5
  36    5:20   40.9    84    1.4   281      2.7   967.7    0.00       0    47.3
  36    5:30   39.4    84    0.8   334      2.0   967.9    0.00       0    47.2
  36    5:40   38.7    86    1.2   348      1.6   967.9    0.00       0    47.1
  36    5:50   39.5    87    0.2   350      0.9   967.8    0.00       0    47.0
  36    6:00   39.6    86    0.0     0      0.0   967.9    0.00       0    46.9
  36    6:10   40.0    87    0.9   267      2.4   968.0    0.00       0    46.8
  36    6:20   40.2    85    0.3   266      1.5   968.1    0.00       0    46.7
  36    6:30   39.6    84    0.0   241      0.5   968.1    0.00       0    46.6
  36    6:40   39.1    86    0.1   241      1.0   968.4    0.00       3    46.5
  36    6:50   38.9    86    0.0     0      0.0   968.6    0.00       8    46.4
  36    7:00   38.7    87    0.6    48      1.1   968.5    0.00      13    46.3
  36    7:10   39.2    87    0.0     0      0.0   968.6    0.00      32    46.2
  36    7:20   39.3    87    0.2   286      1.2   968.7    0.00      63    46.2
  36    7:30   42.3    85    0.0     0      0.0   968.8    0.00     127    46.2
  36    7:40   45.5    76    0.2   301      0.9   969.1    0.00     139    46.4
  36    7:50   46.9    74    0.8    39      2.0   969.4    0.00     131    46.9
  36    8:00   47.1    74    1.1   359      1.9   969.8    0.00     141    47.4
  36    8:10   48.8    72    0.4    39      1.5   969.9    0.00     216    47.9
  36    8:20   50.3    68    0.5    21      2.0   970.0    0.00      99    48.4
  36    8:30   49.7    69    2.7   322      4.6   970.2    0.00      92    48.7
  36    8:40   50.6    66    2.6   305      4.7   970.3    0.00     131    49.3
  36    8:50   52.0    63    2.8   294      6.5   970.6    0.00     401    50.2
  36    9:00   52.9    61    1.8   273      3.7   970.8    0.00     297    51.0
  36    9:10   52.9    61    2.5   296      5.8   970.9    0.00     182    51.4
  36    9:20   53.1    61    2.2   239      4.3   970.9    0.00     235    51.5
  36    9:30   54.4    59    1.8   245      3.4   970.7    0.00     387    51.7
  36    9:40   56.1    55    1.7   308      4.7   970.5    0.00     289    52.3
  36    9:50   55.8    54    2.6   287      4.9   970.7    0.00     254    52.8
  36   10:00   56.3    54    2.1   245      4.2   970.9    0.00     369    53.0
  36   10:10   57.7    51    1.9   257      5.6   971.0    0.00     467    53.2
  36   10:20   58.6    49    1.8   289      4.7   970.9    0.00     471    53.4
  36   10:30   59.8    47    0.9   250      3.7   970.9    0.00     424    53.4
  36   10:40   59.4    47    1.4   330      3.6   970.9    0.00     437    53.5
  36   10:50   59.9    46    1.6   340      5.0   970.7    0.00     412    53.7
  36   11:00   60.6    45    1.6   299      5.6   970.6    0.00     430    54.0
  36   11:10   60.6    46    3.3    17      5.5   970.5    0.00     414    54.3
  36   11:20   60.4    46    2.6     7      4.8   970.3    0.00     360    54.4
  36   11:30   60.5    45    2.1   293      5.8   970.0    0.00     392    54.6
  36   11:40   60.9    45    2.0   247      4.9   969.9    0.00     363    54.9
  36   11:50   61.4    44    2.0   284      4.6   969.6    0.00     292    55.2
  36   12:00   61.4    44    2.0   278      5.2   969.4    0.00     346    55.4
  36   12:10   62.4    43    1.5   250      4.4   969.0    0.00     379    55.6
  36   12:20   63.0    42    2.5   232      5.7   968.7    0.00     474    55.9
  36   12:30   62.9    42    2.6   293      5.6   968.5    0.00     435    56.1
  36   12:40   63.1    41    2.1   267      4.7   968.2    0.00     450    56.3
  36   12:50   64.2    40    2.2   294      4.9   968.0    0.00     454    56.5
  36   13:00   64.6    39    1.6   222      4.1   967.8    0.00     418    56.7
  36   13:10   64.1    40    2.8   304      5.3   967.7    0.00     356    56.9
  36   13:20   64.5    39    1.4   297      3.9   967.4    0.00     336    57.1
  36   13:30   64.4    39    2.8   312      4.2   967.1    0.00     315    57.3
  36   13:40   64.3    40    1.3   298      3.6   966.7    0.00     287    57.5
  36   13:50   64.7    40    2.0    28      4.2   966.4    0.00     283    57.7
  36   14:00   65.0    38    0.9   235      2.8   966.2    0.00     262    57.9
  36   14:10   65.0    38    2.1   223      4.0   966.2    0.00     299    58.1
  36   14:20   65.2    38    1.6   217      4.5   966.1    0.00     308    58.3
  36   14:30   66.2    37    0.4   266      2.2   965.9    0.00     263    58.4
  36   14:40   66.1    37    2.3   247      4.7   965.9    0.00     238    58.5
  36   14:50   65.5    38    1.7   248      4.5   965.9    0.00     206    58.6
  36   15:00   65.7    37    1.0   320      2.9   965.7    0.00     254    58.7
  36   15:10   65.8    37    1.1   189      2.9   965.8    0.00     190    58.8
  36   15:20   65.5    37    2.1   217      4.1   965.7    0.00     172    58.8
  36   15:30   65.6    37    2.1   232      4.2   965.7    0.00     121    58.8
  36   15:40   65.6    36    1.7   233      3.2   965.8    0.00      99    58.8
  36   15:50   65.3    37    1.2   211      2.3   965.7    0.00      79    58.8
  36   16:00   65.1    37    1.1   208      2.0   965.6    0.00      56    58.7
  36   16:10   64.8    36    1.0   173      1.5   965.6    0.00      55    58.6
  36   16:20   64.7    38    0.2    89      0.9   965.5    0.00      48    58.6
  36   16:30   64.3    38    0.8    88      2.3   965.3    0.00      37    58.5
  36   16:40   63.7    40    0.6   103      2.0   965.2    0.00      21    58.4
  36   16:50   63.3    42    0.4   152      1.3   965.3    0.00      12    58.2
  36   17:00   62.3    44    1.2    90      1.8   965.3    0.00       7    58.1
  36   17:10   61.9    45    0.9   101      1.8   965.2    0.00       3    57.9
  36   17:20   61.0    47    1.7   112      3.8   965.1    0.00       0    57.7
  36   17:30   60.6    49    1.7   101      3.6   964.9    0.00       0    57.6
  36   17:40   59.6    51    2.0   123      4.6   964.8    0.00       0    57.5
  36   17:50   59.4    51    2.2   171      3.7   965.1    0.00       0    57.3
  36   18:00   59.2    52    1.5   168      2.5   964.9    0.00       0    57.2
  36   18:10   59.1    53    1.0   208      2.0   964.7    0.00       0    57.1
  36   18:20   58.3    55    0.0   244      0.7   964.8    0.00       0    56.9
  36   18:30   57.6    56    0.3   199      1.4   964.7    0.00       0    56.8
  36   18:40   56.8    58    0.3     6      2.2   964.7    0.00       0    56.6
  36   18:50   55.1    62    1.4     4      2.3   964.6    0.00       0    56.5
  36   19:00   54.9    63    0.1    16      1.0   964.6    0.00       0    56.3
  36   19:10   55.2    62    0.6   280      1.9   964.5    0.00       0    56.2
  36   19:20   55.3    62    0.8   280      3.1   964.5    0.00       0    56.0
  36   19:30   54.9    63    1.3   288      2.8   964.4    0.00       0    56.0
  36   19:40   54.7    63    1.4   293      2.6   964.2    0.00       0    55.9
  36   19:50   53.7    65    2.1   289      4.2   964.3    0.00       0    55.7
  36   20:00   54.1    64    0.8   331      2.3   964.2    0.00       0    55.6
  36   20:10   53.8    65    0.7   311      2.5   964.1    0.00       0    55.4
  36   20:20   52.9    67    1.8   332      2.9   964.0    0.00       0    55.3
  36   20:30   52.8    67    1.1   313      2.1   963.8    0.00       0    55.2
  36   20:40   53.2    66    1.2   324      1.8   963.7    0.00       0    55.1
  36   20:50   52.9    67    2.2   275      3.4   963.6    0.00       0    55.0
  36   21:00   53.3    66    1.3   276      3.5   963.7    0.00       0    54.9

Return to Overton, Nevada graphs page.


Western Regional Climate Center,wrcc@dri.edu